createdAt,value
2023-05-12T00:00:24.660Z,4942.50
2023-05-12T00:02:26.975Z,3321.63
2023-05-12T00:04:31.547Z,3645.09
2023-05-12T00:06:34.348Z,11110.69
2023-05-12T00:08:37.026Z,15987.59
2023-05-12T00:10:39.729Z,23153.25
2023-05-12T00:12:42.387Z,22827.75
2023-05-12T00:14:45.188Z,20873.88
2023-05-12T00:16:51.486Z,21849.47
2023-05-12T00:18:54.307Z,27387.81
2023-05-12T00:20:58.393Z,33589.09
2023-05-12T00:23:01.079Z,40453.91
2023-05-12T00:25:03.774Z,45041.19
2023-05-12T00:27:06.644Z,49306.16
2023-05-12T00:29:09.318Z,48331.09
2023-05-12T00:31:11.975Z,44719.50
2023-05-12T00:33:14.706Z,46355.09
2023-05-12T00:35:17.716Z,48650.97
2023-05-12T00:37:21.886Z,48975.50
2023-05-12T00:39:24.616Z,50616.88
2023-05-12T00:41:27.442Z,52909.09
2023-05-12T00:43:31.464Z,56198.13
2023-05-12T00:45:34.338Z,53252.44
2023-05-12T00:47:37.296Z,52578.00
2023-05-12T00:49:42.580Z,57501.22
2023-05-12T00:51:45.348Z,61447.19
2023-05-12T00:53:50.580Z,64083.91
2023-05-12T00:55:53.656Z,64419.34
2023-05-12T00:57:56.719Z,64749.75
2023-05-12T00:59:59.541Z,63760.81
2023-05-12T01:02:02.370Z,62776.00
2023-05-12T01:04:05.428Z,60806.28
2023-05-12T01:06:14.418Z,57839.03
2023-05-12T01:08:17.948Z,60145.13
2023-05-12T01:10:22.848Z,61454.72
2023-05-12T01:12:26.618Z,65408.44
2023-05-12T01:14:29.317Z,67042.81
2023-05-12T01:16:37.685Z,72649.31
2023-05-12T01:18:44.009Z,74628.03
2023-05-12T01:20:48.834Z,76274.16
2023-05-12T01:22:52.235Z,78592.97
2023-05-12T01:24:58.263Z,79259.38
2023-05-12T01:27:03.694Z,77282.94
2023-05-12T01:29:07.672Z,75295.44
2023-05-12T01:31:10.726Z,76270.16
2023-05-12T01:33:14.162Z,78603.19
2023-05-12T01:35:16.802Z,77276.91
2023-05-12T01:37:19.848Z,76616.31
2023-05-12T01:39:22.721Z,75966.34
2023-05-12T01:41:25.537Z,72665.06
2023-05-12T01:43:29.623Z,70347.88
2023-05-12T01:45:33.367Z,69361.09
2023-05-12T01:47:36.083Z,67046.34
2023-05-12T01:49:38.830Z,69349.63
2023-05-12T01:51:41.444Z,70338.69
2023-05-12T01:53:44.167Z,70354.56
2023-05-12T01:55:46.754Z,67707.69
2023-05-12T01:57:49.373Z,68032.50
2023-05-12T01:59:53.598Z,67372.28
2023-05-12T02:01:56.437Z,69681.13
2023-05-12T02:03:59.630Z,68359.66
2023-05-12T02:06:02.362Z,70339.91
2023-05-12T02:08:05.668Z,69027.81
2023-05-12T02:10:09.650Z,66718.06
2023-05-12T02:12:12.370Z,66720.38
2023-05-12T02:14:15.076Z,63754.16
2023-05-12T02:16:19.196Z,64084.47
2023-05-12T02:18:22.022Z,64739.59
2023-05-12T02:20:24.965Z,63088.09
2023-05-12T02:22:27.580Z,63746.34
2023-05-12T02:24:30.228Z,63751.91
2023-05-12T02:26:32.808Z,62769.94
2023-05-12T02:28:36.455Z,57835.47
2023-05-12T02:30:39.365Z,57177.09
2023-05-12T02:32:43.389Z,56846.94
2023-05-12T02:34:47.281Z,57504.25
2023-05-12T02:36:49.895Z,57515.38
2023-05-12T02:38:52.559Z,55203.66
2023-05-12T02:40:55.352Z,56843.94
2023-05-12T02:42:58.049Z,58486.31
2023-05-12T02:45:00.790Z,60787.13
2023-05-12T02:47:03.487Z,62760.06
2023-05-12T02:49:07.508Z,64406.41
2023-05-12T02:51:10.191Z,66048.25
2023-05-12T02:53:12.965Z,66048.25
2023-05-12T02:55:15.651Z,66042.47
2023-05-12T02:57:18.454Z,70335.03
2023-05-12T02:59:21.488Z,70331.34
2023-05-12T03:01:24.212Z,70007.78
2023-05-12T03:03:27.068Z,69015.81
2023-05-12T03:05:31.217Z,70983.38
2023-05-12T03:07:33.972Z,74279.94
2023-05-12T03:09:36.637Z,76258.94
2023-05-12T03:11:39.360Z,75587.59
2023-05-12T03:13:42.071Z,79891.34
2023-05-12T03:15:44.986Z,80879.97
2023-05-12T03:17:47.856Z,83517.63
2023-05-12T03:19:50.517Z,86500.94
2023-05-12T03:21:54.620Z,87821.94
2023-05-12T03:23:57.383Z,88815.25
2023-05-12T03:26:00.057Z,90489.94
2023-05-12T03:28:03.537Z,90161.72
2023-05-12T03:30:07.759Z,88181.91
2023-05-12T03:32:10.554Z,84868.47
2023-05-12T03:34:13.224Z,82527.13
2023-05-12T03:36:15.793Z,83194.84
2023-05-12T03:38:19.799Z,84176.16
2023-05-12T03:40:22.620Z,88145.41
2023-05-12T03:42:25.744Z,90122.94
2023-05-12T03:44:28.329Z,92772.47
2023-05-12T03:46:31.408Z,94775.22
2023-05-12T03:48:34.237Z,95116.63
2023-05-12T03:50:36.838Z,93452.19
2023-05-12T03:52:41.201Z,93778.88
2023-05-12T03:54:45.215Z,93786.94
2023-05-12T03:56:48.053Z,93113.50
2023-05-12T03:58:50.866Z,93786.13
2023-05-12T04:00:53.646Z,93784.53
2023-05-12T04:02:56.434Z,94441.97
2023-05-12T04:04:59.079Z,94796.38
2023-05-12T04:07:01.668Z,93468.25
2023-05-12T04:09:04.409Z,91151.88
2023-05-12T04:11:09.411Z,89477.56
2023-05-12T04:13:12.512Z,87815.88
2023-05-12T04:15:15.633Z,87174.91
2023-05-12T04:17:19.233Z,85207.44
2023-05-12T04:19:21.927Z,82227.78
2023-05-12T04:21:24.607Z,79229.19
2023-05-12T04:23:27.419Z,77276.91
2023-05-12T04:25:30.218Z,70655.50
2023-05-12T04:27:34.213Z,68370.38
2023-05-12T04:29:37.240Z,63075.94
2023-05-12T04:31:39.907Z,65724.69
2023-05-12T04:33:42.573Z,65068.88
2023-05-12T04:35:45.605Z,62444.66
2023-05-12T04:37:49.103Z,53562.47
2023-05-12T04:39:52.003Z,53548.78
2023-05-12T04:41:54.753Z,57187.13
2023-05-12T04:44:00.377Z,54542.41
2023-05-12T04:46:03.436Z,58804.75
2023-05-12T04:48:06.622Z,58827.97
2023-05-12T04:50:10.613Z,53228.97
2023-05-12T04:52:13.286Z,55192.44
2023-05-12T04:54:18.993Z,56855.91
2023-05-12T04:56:22.148Z,52571.97
2023-05-12T04:58:24.791Z,49945.56
2023-05-12T05:00:29.182Z,52899.75
2023-05-12T05:02:32.129Z,52257.09
2023-05-12T05:04:34.820Z,44391.38
2023-05-12T05:06:37.480Z,34440.31
2023-05-12T05:08:40.436Z,21789.84
2023-05-12T05:10:43.173Z,15029.19
2023-05-12T05:12:45.899Z,7558.56
2023-05-12T05:14:48.914Z,8912.03
2023-05-12T05:16:53.129Z,-5273.69
2023-05-12T05:18:56.687Z,-11233.25
2023-05-12T05:21:00.878Z,-3756.44
2023-05-12T05:23:03.715Z,437.94
2023-05-12T05:25:08.211Z,1597.69
2023-05-12T05:27:10.994Z,-4975.06
2023-05-12T05:29:13.627Z,-9901.53
2023-05-12T05:31:17.463Z,-11340.97
2023-05-12T05:33:21.499Z,-21154.94
2023-05-12T05:35:24.182Z,-23496.72
2023-05-12T05:37:27.283Z,-23497.97
2023-05-12T05:39:30.942Z,-22858.59
2023-05-12T05:41:33.646Z,-22399.97
2023-05-12T05:43:36.447Z,-23507.47
2023-05-12T05:45:39.093Z,-23506.84
2023-05-12T05:47:42.119Z,-23510.31
2023-05-12T05:49:46.436Z,-23509.06
2023-05-12T05:51:49.040Z,-23513.34
2023-05-12T05:53:51.705Z,-23511.91
2023-05-12T05:55:54.460Z,-23511.75
2023-05-12T05:57:57.108Z,-23507.78
2023-05-12T05:59:59.759Z,-23509.84
2023-05-12T06:02:02.426Z,-23513.81
2023-05-12T06:04:05.144Z,-23518.88
2023-05-12T06:06:09.267Z,-23514.28
2023-05-12T06:08:13.338Z,-23515.41
2023-05-12T06:10:16.622Z,-23524.91
2023-05-12T06:12:19.385Z,-23515.41
2023-05-12T06:14:22.028Z,-23512.84
2023-05-12T06:16:25.000Z,-23513.50
2023-05-12T06:18:27.718Z,-23519.81
2023-05-12T06:20:30.377Z,-23521.88
2023-05-12T06:22:34.689Z,-23515.88
2023-05-12T06:24:37.461Z,-23520.16
2023-05-12T06:26:40.186Z,-23523.47
2023-05-12T06:28:42.886Z,-23524.91
2023-05-12T06:30:45.941Z,-23519.34
2023-05-12T06:32:48.625Z,-23522.69
2023-05-12T06:34:51.518Z,-23521.09
2023-05-12T06:36:55.132Z,-23513.03
2023-05-12T06:38:59.446Z,-23515.56
2023-05-12T06:41:02.148Z,-23515.72
2023-05-12T06:43:04.757Z,-23519.81
2023-05-12T06:45:08.621Z,-23525.06
2023-05-12T06:47:11.536Z,-23531.84
2023-05-12T06:49:14.176Z,-23531.53
2023-05-12T06:51:17.018Z,-23526.94
2023-05-12T06:53:19.806Z,-23528.38
2023-05-12T06:55:24.425Z,-23535.97
2023-05-12T06:57:27.184Z,-23538.19
2023-05-12T06:59:30.804Z,-23528.84
2023-05-12T07:01:34.106Z,-23526.94
2023-05-12T07:03:36.904Z,-23524.91
2023-05-12T07:05:39.714Z,-23529.34
2023-05-12T07:07:42.655Z,-23535.66
2023-05-12T07:09:46.057Z,-23530.91
2023-05-12T07:11:51.014Z,-23519.50
2023-05-12T07:13:53.735Z,-23526.16
2023-05-12T07:15:56.458Z,-23535.66
2023-05-12T07:17:59.137Z,-23545.63
2023-05-12T07:20:01.791Z,-23539.47
2023-05-12T07:22:04.640Z,-23531.53
2023-05-12T07:24:07.542Z,-23536.94
2023-05-12T07:26:10.264Z,-23531.69
2023-05-12T07:28:14.418Z,-23541.03
2023-05-12T07:30:17.499Z,-23548.16
2023-05-12T07:32:20.506Z,-23539.78
2023-05-12T07:34:23.283Z,-23536.44
2023-05-12T07:36:25.919Z,-23538.03
2023-05-12T07:38:28.780Z,-23554.34
2023-05-12T07:40:31.420Z,-23557.66
2023-05-12T07:42:34.190Z,-23546.75
2023-05-12T07:44:38.170Z,-23558.44
2023-05-12T07:46:40.906Z,-23566.97
2023-05-12T07:48:43.525Z,-23559.41
2023-05-12T07:50:46.331Z,-23579.00
2023-05-12T07:52:50.167Z,-23577.72
2023-05-12T07:54:52.800Z,-23556.22
2023-05-12T07:56:55.455Z,-23552.59
2023-05-12T07:58:58.089Z,-23549.91
2023-05-12T08:01:05.889Z,-23573.63
2023-05-12T08:03:08.702Z,-23575.53
2023-05-12T08:05:12.149Z,-23573.63
2023-05-12T08:07:15.661Z,-23555.59
2023-05-12T08:09:18.436Z,-23564.63
2023-05-12T08:11:21.046Z,-23564.47
2023-05-12T08:13:23.691Z,-23552.44
2023-05-12T08:15:26.440Z,-23563.66
2023-05-12T08:17:30.575Z,-23565.09
2023-05-12T08:19:33.272Z,-23574.88
2023-05-12T08:21:35.902Z,-23571.56
2023-05-12T08:23:38.638Z,-23575.69
2023-05-12T08:25:41.941Z,-23577.56
2023-05-12T08:27:44.643Z,-23576.78
2023-05-12T08:29:47.629Z,-23571.88
2023-05-12T08:31:50.344Z,-23585.81
2023-05-12T08:36:02.600Z,-23578.53
2023-05-12T08:38:05.855Z,-23589.13
2023-05-12T08:40:17.526Z,-23580.91
2023-05-12T08:42:31.485Z,-23585.66
2023-05-12T08:44:34.756Z,-23585.97
2023-05-12T08:46:38.152Z,-23573.94
2023-05-12T08:48:42.615Z,-23590.06
2023-05-12T08:50:48.499Z,-23591.34
2023-05-12T08:52:51.323Z,-23582.16
2023-05-12T08:54:56.648Z,-23585.16
2023-05-12T08:59:09.345Z,-23588.63
2023-05-12T09:01:14.783Z,-23590.53
2023-05-12T09:03:18.821Z,-23586.28
2023-05-12T09:05:21.816Z,-23583.75
2023-05-12T09:07:26.660Z,-23583.13
2023-05-12T09:09:32.678Z,-23591.34
2023-05-12T09:11:35.319Z,-23594.50
2023-05-12T09:13:46.210Z,-23586.59
2023-05-12T09:15:51.451Z,-23583.44
2023-05-12T09:17:54.196Z,-23586.59
2023-05-12T09:19:56.964Z,-23584.38
2023-05-12T09:22:00.479Z,-23578.84
2023-05-12T09:24:06.412Z,-23588.00
2023-05-12T09:26:09.269Z,-23614.22
2023-05-12T09:28:12.840Z,-23610.44
2023-05-12T09:30:15.998Z,-23615.34
2023-05-12T09:32:18.713Z,-23616.75
2023-05-12T09:34:28.701Z,-23629.72
2023-05-12T09:36:31.869Z,-23609.03
2023-05-12T09:38:34.512Z,-23641.53
2023-05-12T09:40:38.888Z,-23642.81
2023-05-12T09:42:43.489Z,-23612.19
2023-05-12T09:44:47.576Z,-23626.06
2023-05-12T09:46:51.398Z,-23617.88
2023-05-12T09:48:57.314Z,-23624.97
2023-05-12T09:51:00.229Z,-23631.91
2023-05-12T09:53:03.904Z,-23637.75
2023-05-12T09:55:11.406Z,-23634.28
2023-05-12T09:57:17.320Z,-23629.25
2023-05-12T09:59:21.677Z,-23649.59
2023-05-12T10:01:25.186Z,-23644.38
2023-05-12T10:03:31.623Z,-23658.88
2023-05-12T10:05:35.315Z,-23646.59
2023-05-12T10:07:38.704Z,-23638.53
2023-05-12T10:09:43.065Z,-23635.53
2023-05-12T10:11:47.748Z,-23631.44
2023-05-12T10:13:52.001Z,-23642.47
2023-05-12T10:15:57.209Z,-23659.53
2023-05-12T10:18:00.595Z,-23656.69
2023-05-12T10:20:06.558Z,-23651.63
2023-05-12T10:22:11.880Z,-23641.53
2023-05-12T10:24:16.023Z,-23651.47
2023-05-12T10:26:19.948Z,-23640.28
2023-05-12T10:28:22.896Z,-23623.56
2023-05-12T10:30:27.226Z,-23633.66
2023-05-12T10:32:30.045Z,-23630.19
2023-05-12T10:34:35.386Z,-23633.81
2023-05-12T10:36:46.904Z,-23624.50
2023-05-12T10:38:50.662Z,-23613.91
2023-05-12T10:40:54.898Z,-23619.91
2023-05-12T10:43:00.751Z,-23622.44
2023-05-12T10:45:04.767Z,-23632.69
2023-05-12T10:47:16.113Z,-23633.34
2023-05-12T10:49:20.067Z,-23620.88
2023-05-12T10:51:24.685Z,-23627.97
2023-05-12T10:53:41.416Z,-23626.06
2023-05-12T10:55:52.437Z,-23612.50
2023-05-12T10:57:55.599Z,-23606.81
2023-05-12T11:00:00.826Z,-23600.81
2023-05-12T11:02:06.951Z,-23597.97
2023-05-12T11:04:13.667Z,-23597.00
2023-05-12T11:06:20.692Z,-23600.66
2023-05-12T11:08:24.961Z,-23585.00
2023-05-12T11:10:31.149Z,-23581.22
2023-05-12T11:12:36.589Z,-23579.94
2023-05-12T11:14:40.731Z,-23581.53
2023-05-12T11:16:44.700Z,-23576.16
2023-05-12T11:18:48.590Z,-23571.09
2023-05-12T11:20:52.624Z,-23566.81
2023-05-12T11:22:55.364Z,-23569.19
2023-05-12T11:24:58.069Z,-23570.00
2023-05-12T11:27:00.802Z,-23565.56
2023-05-12T11:29:05.045Z,-23559.88
2023-05-12T11:31:07.653Z,-23567.31
2023-05-12T11:33:10.452Z,-23559.56
2023-05-12T11:35:14.946Z,-23556.38
2023-05-12T11:37:20.826Z,-23559.22
2023-05-12T11:39:26.040Z,-23563.50
2023-05-12T11:41:28.715Z,-23564.47
2023-05-12T11:43:31.474Z,-23564.63
2023-05-12T11:45:35.858Z,-23557.19
2023-05-12T11:47:38.596Z,-23557.19
2023-05-12T11:49:48.029Z,-23554.34
2023-05-12T11:51:53.181Z,-23555.59
2023-05-12T11:53:57.227Z,-23550.06
2023-05-12T11:55:59.816Z,-23552.59
2023-05-12T11:58:04.386Z,-23550.38
2023-05-12T12:00:09.045Z,-23555.13
2023-05-12T12:02:21.328Z,-23560.97
2023-05-12T12:04:37.287Z,-23570.47
2023-05-12T12:06:44.986Z,-23568.56
2023-05-12T12:08:51.936Z,-23575.22
2023-05-12T12:10:56.352Z,-23585.66
2023-05-12T12:13:00.572Z,-23591.50
2023-05-12T12:15:03.367Z,-23603.66
2023-05-12T12:17:06.405Z,-23600.97
2023-05-12T12:19:09.226Z,-23613.28
2023-05-12T12:21:12.760Z,-23615.03
2023-05-12T12:23:15.390Z,-23609.34
2023-05-12T12:25:18.109Z,-23620.41
2023-05-12T12:27:22.201Z,-23628.44
2023-05-12T12:29:26.170Z,-23631.75
2023-05-12T12:31:28.939Z,-23631.75
2023-05-12T12:33:31.563Z,-23648.78
2023-05-12T12:35:34.226Z,-23636.50
2023-05-12T12:37:37.699Z,-23627.97
2023-05-12T12:39:40.596Z,-23642.81
2023-05-12T12:41:44.254Z,-23660.16
2023-05-12T12:43:48.244Z,-23660.00
2023-05-12T12:45:51.444Z,-23669.63
2023-05-12T12:47:54.958Z,-23644.69
2023-05-12T12:49:57.748Z,-23648.47
2023-05-12T12:52:00.443Z,-23667.09
2023-05-12T12:54:03.126Z,-23663.63
2023-05-12T12:56:05.945Z,-23660.78
2023-05-12T12:58:09.172Z,-23653.22
2023-05-12T13:00:14.563Z,-23655.41
2023-05-12T13:02:17.325Z,-23660.47
2023-05-12T13:04:22.912Z,-23669.78
2023-05-12T13:06:25.785Z,-23669.78
2023-05-12T13:08:28.433Z,-23663.00
2023-05-12T13:10:31.448Z,-23659.38
2023-05-12T13:12:34.106Z,-23646.28
2023-05-12T13:14:36.693Z,-23632.69
2023-05-12T13:16:40.753Z,-23631.13
2023-05-12T13:18:43.784Z,-23617.88
2023-05-12T13:20:46.634Z,-23607.28
2023-05-12T13:22:49.625Z,-23603.19
2023-05-12T13:24:52.355Z,-23610.44
2023-05-12T13:26:55.131Z,-23601.13
2023-05-12T13:28:57.916Z,-23597.00
2023-05-12T13:31:00.847Z,-23595.28
2023-05-12T13:33:06.226Z,-23594.16
2023-05-12T13:35:09.914Z,-23587.06
2023-05-12T13:37:12.582Z,-23590.06
2023-05-12T13:39:15.749Z,-23591.34
2023-05-12T13:41:19.018Z,-23591.97
2023-05-12T13:43:22.246Z,-23594.16
2023-05-12T13:45:25.050Z,-23599.38
2023-05-12T13:47:28.094Z,-23600.34
2023-05-12T13:49:32.016Z,-23597.34
2023-05-12T13:51:34.667Z,-23594.16
2023-05-12T13:53:39.537Z,-23593.38
2023-05-12T13:55:42.376Z,-23595.44
2023-05-12T13:57:45.029Z,-23603.97
2023-05-12T13:59:47.739Z,-23602.88
2023-05-12T14:01:50.718Z,-23603.34
2023-05-12T14:03:53.507Z,-23609.03
2023-05-12T14:05:57.431Z,-23611.88
2023-05-12T14:08:00.153Z,-23621.97
2023-05-12T14:10:02.926Z,-23627.66
2023-05-12T14:12:06.354Z,-23631.13
2023-05-12T14:14:08.986Z,-23642.66
2023-05-12T14:16:13.924Z,-23637.13
2023-05-12T14:18:16.624Z,-23636.19
2023-05-12T14:20:19.328Z,-23645.97
2023-05-12T14:22:26.441Z,-23646.28
2023-05-12T14:24:30.436Z,-23642.16
2023-05-12T14:26:33.283Z,-23642.16
2023-05-12T14:28:36.333Z,-23629.88
2023-05-12T14:30:39.122Z,-23636.66
2023-05-12T14:32:41.847Z,-23632.56
2023-05-12T14:34:44.848Z,-23641.22
2023-05-12T14:36:47.474Z,-23646.13
2023-05-12T14:38:51.473Z,-23633.50
2023-05-12T14:40:54.098Z,-23631.13
2023-05-12T14:42:56.771Z,-23626.41
2023-05-12T14:44:59.627Z,-23619.75
2023-05-12T14:47:02.480Z,-23610.91
2023-05-12T14:49:10.510Z,-23619.13
2023-05-12T14:51:13.398Z,-23617.22
2023-05-12T14:53:16.546Z,-23612.81
2023-05-12T14:55:20.758Z,-23606.97
2023-05-12T14:57:23.809Z,-23610.75
2023-05-12T14:59:26.754Z,-23605.22
2023-05-12T15:01:29.493Z,-23611.38
2023-05-12T15:03:33.625Z,-23608.69
2023-05-12T15:05:56.758Z,-23605.22
2023-05-12T15:07:59.421Z,-23611.53
2023-05-12T15:10:02.078Z,-23611.88
2023-05-12T15:12:06.634Z,-23607.75
2023-05-12T15:14:09.289Z,-23599.69
2023-05-12T15:16:11.873Z,-23605.53
2023-05-12T15:18:14.656Z,-23603.97
2023-05-12T15:20:17.438Z,-23606.19
2023-05-12T15:22:20.061Z,-23613.91
2023-05-12T15:24:22.774Z,-23619.91
2023-05-12T15:26:33.738Z,-23623.06
2023-05-12T15:28:38.659Z,-23622.91
2023-05-12T15:30:41.372Z,-23617.22
2023-05-12T15:32:44.033Z,-23610.75
2023-05-12T15:34:46.819Z,-23612.34
2023-05-12T15:36:50.814Z,-23621.66
2023-05-12T15:38:53.560Z,-23620.56
2023-05-12T15:40:56.344Z,-23619.28
2023-05-12T15:42:59.076Z,-23619.75
2023-05-12T15:45:03.824Z,-23622.59
2023-05-12T15:47:07.109Z,-23625.59
2023-05-12T15:49:10.043Z,-23625.13
2023-05-12T15:51:13.328Z,-23620.25
2023-05-12T15:53:16.083Z,-23615.34
2023-05-12T15:55:19.238Z,-23615.34
2023-05-12T15:57:22.016Z,-23619.59
2023-05-12T15:59:24.609Z,-23629.06
2023-05-12T16:01:28.828Z,-23616.28
2023-05-12T16:03:31.574Z,-23618.81
2023-05-12T16:05:37.775Z,-23621.66
2023-05-12T16:07:40.504Z,-23613.91
2023-05-12T16:09:43.240Z,-23615.81
2023-05-12T16:11:45.900Z,-23615.97
2023-05-12T16:13:48.639Z,-23621.66
2023-05-12T16:15:52.385Z,-23621.97
2023-05-12T16:17:56.535Z,-23620.25
2023-05-12T16:19:59.234Z,-23621.66
2023-05-12T16:22:01.863Z,-23617.38
2023-05-12T16:24:05.854Z,-23616.91
2023-05-12T16:26:09.356Z,-23616.13
2023-05-12T16:28:12.173Z,-23613.91
2023-05-12T16:30:17.204Z,-23604.75
2023-05-12T16:32:21.355Z,-23605.22
2023-05-12T16:34:25.978Z,-23605.22
2023-05-12T16:36:29.735Z,-23596.38
2023-05-12T16:38:32.534Z,-23600.66
2023-05-12T16:40:35.231Z,-23598.59
2023-05-12T16:42:37.840Z,-23594.03
2023-05-12T16:44:40.526Z,-23593.22
2023-05-12T16:46:43.441Z,-23591.81
2023-05-12T16:48:46.137Z,-23592.59
2023-05-12T16:50:50.144Z,-23594.81
2023-05-12T16:52:53.652Z,-23590.06
2023-05-12T16:54:57.146Z,-23591.00
2023-05-12T16:57:02.109Z,-23590.69
2023-05-12T16:59:04.788Z,-23591.00
2023-05-12T17:01:07.452Z,-23593.22
2023-05-12T17:03:10.145Z,-23593.38
2023-05-12T17:05:13.355Z,-23588.50
2023-05-12T17:07:17.665Z,-23584.06
2023-05-12T17:09:21.112Z,-23585.66
2023-05-12T17:11:24.538Z,-23590.53
2023-05-12T17:13:27.202Z,-23583.13
2023-05-12T17:15:29.888Z,-23590.69
2023-05-12T17:17:32.724Z,-23585.97
2023-05-12T17:19:41.690Z,-23585.31
2023-05-12T17:21:44.446Z,-23583.75
2023-05-12T17:23:48.614Z,-23581.06
2023-05-12T17:25:51.314Z,-23582.97
2023-05-12T17:27:53.910Z,-23584.69
2023-05-12T17:29:57.568Z,-23583.44
2023-05-12T17:32:01.985Z,-23581.06
2023-05-12T17:34:04.697Z,-23577.72
2023-05-12T17:36:12.878Z,-23576.47
2023-05-12T17:38:15.814Z,-23576.31
2023-05-12T17:40:19.831Z,-23578.53
2023-05-12T17:42:23.091Z,-23579.94
2023-05-12T17:44:25.876Z,-23577.41
2023-05-12T17:46:28.544Z,-23576.78
2023-05-12T17:48:33.294Z,-23575.53
2023-05-12T17:50:36.165Z,-23579.47
2023-05-12T17:52:39.290Z,-23581.06
2023-05-12T17:54:42.044Z,-23574.88
2023-05-12T17:56:46.014Z,-23577.09
2023-05-12T17:58:48.628Z,-23577.91
2023-05-12T18:00:52.363Z,-23578.06
2023-05-12T18:02:55.217Z,-23580.59
2023-05-12T18:04:57.972Z,-23577.56
2023-05-12T18:07:00.582Z,-23575.38
2023-05-12T18:09:03.892Z,-23577.09
2023-05-12T18:11:06.656Z,-23574.41
2023-05-12T18:13:10.938Z,-23573.31
2023-05-12T18:15:13.696Z,-23573.00
2023-05-12T18:17:16.642Z,-23571.41
2023-05-12T18:19:20.217Z,-23570.16
2023-05-12T18:21:22.960Z,-23570.31
2023-05-12T18:23:25.627Z,-23572.03
2023-05-12T18:25:30.711Z,-23571.72
2023-05-12T18:27:33.472Z,-23573.47
2023-05-12T18:29:37.514Z,-23567.47
2023-05-12T18:31:41.137Z,-23568.56
2023-05-12T18:33:43.937Z,-23567.78
2023-05-12T18:35:46.819Z,-23570.31
2023-05-12T18:37:49.542Z,-23566.66
2023-05-12T18:39:53.358Z,-23564.13
2023-05-12T18:41:56.204Z,-23562.25
2023-05-12T18:43:58.896Z,-23562.88
2023-05-12T18:46:03.021Z,-23563.03
2023-05-12T18:48:06.134Z,-23564.78
2023-05-12T18:50:09.636Z,-23561.28
2023-05-12T18:52:12.365Z,-23563.19
2023-05-12T18:54:15.008Z,-23560.50
2023-05-12T18:56:17.633Z,-23556.22
2023-05-12T18:58:20.291Z,-23559.72
2023-05-12T19:00:25.994Z,-23559.22
2023-05-12T19:02:30.066Z,-23558.91
2023-05-12T19:04:32.749Z,-23555.28
2023-05-12T19:06:35.431Z,-23558.13
2023-05-12T19:08:38.129Z,-23557.34
2023-05-12T19:10:41.018Z,-23554.19
2023-05-12T19:12:43.891Z,-23551.00
2023-05-12T19:14:46.581Z,-23554.03
2023-05-12T19:16:49.317Z,-23552.75
2023-05-12T19:18:53.494Z,-23551.47
2023-05-12T19:20:56.223Z,-23553.06
2023-05-12T19:22:59.777Z,-23547.69
2023-05-12T19:25:03.119Z,-23548.31
2023-05-12T19:27:06.037Z,-23551.47
2023-05-12T19:29:08.652Z,-23547.22
2023-05-12T19:31:11.273Z,-23547.69
2023-05-12T19:33:15.924Z,-23548.00
2023-05-12T19:35:22.505Z,-23544.22
2023-05-12T19:37:27.329Z,-23544.84
2023-05-12T19:39:30.277Z,-23547.53
2023-05-12T19:41:32.942Z,-23544.69
2023-05-12T19:43:35.519Z,-23547.06
2023-05-12T19:45:38.176Z,-23548.16
2023-05-12T19:47:41.402Z,-23546.75
2023-05-12T19:49:44.135Z,-23547.53
2023-05-12T19:51:48.641Z,-23550.53
2023-05-12T19:53:51.299Z,-23548.47
2023-05-12T19:55:53.938Z,-23549.44
2023-05-12T19:57:56.598Z,-23546.75
2023-05-12T19:59:59.256Z,-23547.84
2023-05-12T20:02:01.875Z,-23547.38
2023-05-12T20:04:04.601Z,-23543.56
2023-05-12T20:06:07.354Z,-23545.00
2023-05-12T20:08:11.385Z,-23546.75
2023-05-12T20:10:14.080Z,-23547.69
2023-05-12T20:12:16.697Z,-23545.63
2023-05-12T20:14:19.448Z,-23543.09
2023-05-12T20:16:22.293Z,-23547.06
2023-05-12T20:18:24.962Z,-23545.63
2023-05-12T20:20:27.960Z,-23543.41
2023-05-12T20:22:30.619Z,-23541.84
2023-05-12T20:24:34.656Z,-23539.47
2023-05-12T20:26:37.676Z,-23542.63
2023-05-12T20:28:41.048Z,-23546.09
2023-05-12T20:30:43.770Z,-23541.69
2023-05-12T20:32:48.719Z,-23541.19
2023-05-12T20:34:51.433Z,-23544.84
2023-05-12T20:36:54.135Z,-23542.63
2023-05-12T20:38:56.886Z,-23545.78
2023-05-12T20:41:06.170Z,-23541.03
2023-05-12T20:43:09.253Z,-23541.34
2023-05-12T20:45:12.711Z,-23543.88
2023-05-12T20:47:15.485Z,-23542.31
2023-05-12T20:49:18.212Z,-23542.47
2023-05-12T20:51:20.916Z,-23542.31
2023-05-12T20:53:23.614Z,-23544.22
2023-05-12T20:55:26.664Z,-23541.19
2023-05-12T20:57:30.681Z,-23539.31
2023-05-12T20:59:33.482Z,-23535.97
2023-05-12T21:01:36.400Z,-23538.03
2023-05-12T21:03:39.143Z,-23540.41
2023-05-12T21:05:47.567Z,-23537.41
2023-05-12T21:07:50.252Z,-23538.84
2023-05-12T21:09:52.927Z,-23536.94
2023-05-12T21:11:55.545Z,-23534.72
2023-05-12T21:13:59.574Z,-23535.19
2023-05-12T21:16:02.247Z,-23533.28
2023-05-12T21:18:05.064Z,-23531.53
2023-05-12T21:20:09.450Z,-23529.34
2023-05-12T21:22:12.845Z,-23532.19
2023-05-12T21:24:15.462Z,-23530.28
2023-05-12T21:26:18.103Z,-23531.53
2023-05-12T21:28:20.691Z,-23528.06
2023-05-12T21:30:24.724Z,-23530.28
2023-05-12T21:32:27.429Z,-23527.28
2023-05-12T21:34:31.225Z,-23528.38
2023-05-12T21:36:34.122Z,-23527.75
2023-05-12T21:38:36.823Z,-23523.31
2023-05-12T21:40:39.639Z,-23524.91
2023-05-12T21:42:42.325Z,-23522.53
2023-05-12T21:44:45.124Z,-23522.03
2023-05-12T21:46:49.130Z,-23523.31
2023-05-12T21:48:51.807Z,-23523.78
2023-05-12T21:50:58.926Z,-23520.78
2023-05-12T21:53:01.876Z,-23518.88
2023-05-12T21:55:05.411Z,-23518.72
2023-05-12T21:57:07.998Z,-23519.34
2023-05-12T21:59:10.620Z,-23518.56
2023-05-12T22:01:13.664Z,-23517.94
2023-05-12T22:03:17.891Z,-23516.97
2023-05-12T22:05:20.702Z,-23516.34
2023-05-12T22:07:23.696Z,-23516.03
2023-05-12T22:09:27.052Z,-23516.19
2023-05-12T22:11:30.528Z,-23520.31
2023-05-12T22:13:33.257Z,-23520.47
2023-05-12T22:15:36.122Z,-23518.41
2023-05-12T22:17:38.811Z,-23518.56
2023-05-12T22:19:42.781Z,-23517.78
2023-05-12T22:21:45.725Z,-23520.78
2023-05-12T22:23:48.700Z,-23520.78
2023-05-12T22:25:51.515Z,-23521.72
2023-05-12T22:27:54.222Z,-23521.25
2023-05-12T22:29:57.021Z,-23518.88
2023-05-12T22:31:59.739Z,-23517.13
2023-05-12T22:34:02.548Z,-23518.72
2023-05-12T22:36:07.227Z,-23521.25
2023-05-12T22:38:09.986Z,-23516.97
2023-05-12T22:40:13.060Z,-23519.50
2023-05-12T22:42:15.824Z,-23515.41
2023-05-12T22:44:18.518Z,-23516.34
2023-05-12T22:46:21.520Z,-23516.03
2023-05-12T22:48:24.222Z,-23516.66
2023-05-12T22:50:26.933Z,-23514.13
2023-05-12T22:52:30.984Z,-23515.56
2023-05-12T22:54:33.615Z,-23515.41
2023-05-12T22:56:36.338Z,-23516.50
2023-05-12T22:58:38.925Z,-23513.50
2023-05-12T23:00:41.611Z,-23516.97
2023-05-12T23:02:44.363Z,-23516.34
2023-05-12T23:04:46.998Z,-23514.13
2023-05-12T23:06:49.743Z,-23514.59
2023-05-12T23:08:53.806Z,-23512.53
2023-05-12T23:10:56.711Z,-23514.28
2023-05-12T23:12:59.351Z,-23512.84
2023-05-12T23:15:02.012Z,-23513.97
2023-05-12T23:17:04.725Z,-23511.59
2023-05-12T23:19:07.509Z,-23510.81
2023-05-12T23:21:10.260Z,-23510.16
2023-05-12T23:23:12.911Z,-23509.69
2023-05-12T23:25:16.954Z,-23509.69
2023-05-12T23:27:19.803Z,-23511.44
2023-05-12T23:29:22.458Z,-23510.66
2023-05-12T23:31:25.389Z,-23509.69
2023-05-12T23:33:28.293Z,-23509.38
2023-05-12T23:35:31.094Z,-23509.69
2023-05-12T23:37:33.801Z,-23509.22
2023-05-12T23:39:36.710Z,-23508.09
2023-05-12T23:41:40.835Z,-23510.97
2023-05-12T23:43:44.066Z,-23510.31